Hazardville, Connecticut
Current Conditions -  °F | °C
As of 4:51 PM on Thursday 18 Dec 2014 (Local Time) from KBDL Reporting Station
Broken Clouds Broken Clouds  
Wind Chill: 28°   Ceiling: 3300
Heat Index: 38°   Visibility: 10mi
Dew Point: 25°   Wind: 20mph
Humidity: 60%   Direction: 300°WNW
Pressure: 29.89"   Gusts: 24mph
Location:  41.9843°N, 72.5534°W
Report Text: KBDL 182151Z 30017G21KT 10SM BKN033 03/M04 A2989 RMK AO2 SLP124 T00331039
Loading
Personal Weather Stations






























Interactive Weather Map New forecast layout! Learn more

10-Day Weather Forecast

Advertisements
Track Severe Weather on mobile